createdAt,value
2019-05-12T00:00:50.910Z,97717.77
2019-05-12T00:02:28.737Z,97720.41
2019-05-12T00:04:08.368Z,97724.50
2019-05-12T00:05:44.970Z,97734.41
2019-05-12T00:07:20.856Z,97733.05
2019-05-12T00:09:04.220Z,97734.55
2019-05-12T00:10:41.136Z,97734.72
2019-05-12T00:12:18.392Z,97737.05
2019-05-12T00:13:58.410Z,97746.67
2019-05-12T00:15:38.707Z,97746.47
2019-05-12T00:17:14.176Z,97747.05
2019-05-12T00:18:51.913Z,97745.66
2019-05-12T00:20:28.859Z,97749.14
2019-05-12T00:22:07.551Z,97750.13
2019-05-12T00:24:00.908Z,97745.45
2019-05-12T00:25:38.706Z,97752.42
2019-05-12T00:27:18.046Z,97752.63
2019-05-12T00:28:53.640Z,97761.88
2019-05-12T00:30:38.782Z,97758.77
2019-05-12T00:32:17.970Z,97765.90
2019-05-12T00:33:54.551Z,97768.03
2019-05-12T00:35:33.529Z,97766.10
2019-05-12T00:37:08.973Z,97767.58
2019-05-12T00:38:45.183Z,97781.09
2019-05-12T00:40:20.934Z,97784.13
2019-05-12T00:41:58.788Z,97774.95
2019-05-12T00:43:34.552Z,97785.56
2019-05-12T00:45:11.731Z,97794.28
2019-05-12T00:46:48.752Z,97786.34
2019-05-12T00:48:24.513Z,97792.16
2019-05-12T00:50:01.798Z,97800.69
2019-05-12T00:51:38.400Z,97804.77
2019-05-12T00:53:18.912Z,97806.53
2019-05-12T00:54:54.278Z,97810.80
2019-05-12T00:56:29.973Z,97816.00
2019-05-12T00:58:05.180Z,97810.42
2019-05-12T00:59:40.640Z,97812.55
2019-05-12T01:01:18.380Z,97816.03
2019-05-12T01:02:54.332Z,97821.45
2019-05-12T01:04:31.104Z,97827.22
2019-05-12T01:06:08.370Z,97831.48
2019-05-12T01:07:43.416Z,97836.08
2019-05-12T01:09:19.028Z,97829.56
2019-05-12T01:10:54.407Z,97828.74
2019-05-12T01:12:30.064Z,97825.83
2019-05-12T01:14:05.393Z,97829.28
2019-05-12T01:15:43.107Z,97835.26
2019-05-12T01:17:18.619Z,97840.05
2019-05-12T01:18:53.870Z,97837.17
2019-05-12T01:20:31.925Z,97844.30
2019-05-12T01:22:08.158Z,97847.58
2019-05-12T01:23:53.863Z,97848.27
2019-05-12T01:25:21.262Z,97848.27
2019-05-12T01:26:58.170Z,97843.80
2019-05-12T01:28:33.773Z,97850.56
2019-05-12T01:30:09.105Z,97852.69
2019-05-12T01:31:52.340Z,97858.09
2019-05-12T01:33:27.837Z,97856.75
2019-05-12T01:35:03.571Z,97857.12
2019-05-12T01:36:39.281Z,97854.41
2019-05-12T01:38:15.363Z,97859.23
2019-05-12T01:39:50.967Z,97860.38
2019-05-12T01:41:28.507Z,97859.19
2019-05-12T01:43:03.415Z,97858.20
2019-05-12T01:44:40.552Z,97859.39
2019-05-12T01:46:18.104Z,97858.98
2019-05-12T01:47:53.444Z,97863.56
2019-05-12T01:49:29.363Z,97865.49
2019-05-12T01:51:04.963Z,97873.53
2019-05-12T01:52:40.185Z,97873.53
2019-05-12T01:54:18.679Z,97878.11
2019-05-12T01:55:53.555Z,97875.78
2019-05-12T01:57:31.342Z,97874.82
2019-05-12T01:59:08.173Z,97878.88
2019-05-12T02:00:48.273Z,97889.48
2019-05-12T02:02:28.664Z,97896.87
2019-05-12T02:04:03.476Z,97894.33
2019-05-12T02:05:42.435Z,97892.98
2019-05-12T02:07:19.866Z,97898.43
2019-05-12T02:09:01.784Z,97895.67
2019-05-12T02:10:38.929Z,97892.98
2019-05-12T02:12:14.798Z,97892.81
2019-05-12T02:13:50.197Z,97893.11
2019-05-12T02:15:27.641Z,97902.16
2019-05-12T02:17:03.086Z,97908.98
2019-05-12T02:18:38.631Z,97908.62
2019-05-12T02:20:14.733Z,97914.00
2019-05-12T02:21:50.333Z,97911.09
2019-05-12T02:23:28.721Z,97909.23
2019-05-12T02:25:04.344Z,97917.50
2019-05-12T02:26:40.027Z,97917.27
2019-05-12T02:28:18.320Z,97923.58
2019-05-12T02:29:54.007Z,97929.00
2019-05-12T02:31:43.709Z,97926.97
2019-05-12T02:33:29.329Z,97925.94
2019-05-12T02:35:15.893Z,97923.01
2019-05-12T02:36:49.839Z,97922.80
2019-05-12T02:38:25.561Z,97921.81
2019-05-12T02:40:04.498Z,97923.42
2019-05-12T02:41:38.454Z,97916.66
2019-05-12T02:43:15.448Z,97922.34
2019-05-12T02:44:50.901Z,97927.47
2019-05-12T02:46:26.895Z,97932.09
2019-05-12T02:48:05.087Z,97943.84
2019-05-12T02:49:39.169Z,97948.55
2019-05-12T02:51:15.515Z,97953.02
2019-05-12T02:52:54.453Z,97958.73
2019-05-12T02:54:47.049Z,97962.61
2019-05-12T02:56:10.006Z,97956.22
2019-05-12T02:57:47.365Z,97962.34
2019-05-12T02:59:25.303Z,97961.78
2019-05-12T03:01:00.427Z,97965.20
2019-05-12T03:02:37.491Z,97968.22
2019-05-12T03:04:14.521Z,97980.77
2019-05-12T03:05:50.344Z,97978.52
2019-05-12T03:07:26.151Z,97973.59
2019-05-12T03:09:05.039Z,97979.39
2019-05-12T03:10:40.164Z,97981.13
2019-05-12T03:12:16.094Z,97992.36
2019-05-12T03:13:54.726Z,97992.70
2019-05-12T03:15:29.622Z,97995.79
2019-05-12T03:17:07.249Z,98002.23
2019-05-12T03:18:44.998Z,97999.95
2019-05-12T03:20:19.682Z,98004.44
2019-05-12T03:21:54.999Z,98005.06
2019-05-12T03:23:30.319Z,98003.51
2019-05-12T03:25:20.053Z,98006.05
2019-05-12T03:26:46.504Z,98009.45
2019-05-12T03:28:25.143Z,97999.98
2019-05-12T03:29:59.004Z,97993.64
2019-05-12T03:31:39.818Z,97994.05
2019-05-12T03:33:18.275Z,97989.06
2019-05-12T03:34:50.299Z,97990.83
2019-05-12T03:36:31.933Z,97982.34
2019-05-12T03:38:04.425Z,97982.16
2019-05-12T03:39:40.317Z,97985.05
2019-05-12T03:41:15.605Z,97988.33
2019-05-12T03:42:54.896Z,97995.09
2019-05-12T03:44:35.191Z,97993.16
2019-05-12T03:46:10.117Z,97993.90
2019-05-12T03:47:54.796Z,97997.40
2019-05-12T03:49:29.044Z,98002.81
2019-05-12T03:51:05.678Z,97998.18
2019-05-12T03:52:44.716Z,98002.65
2019-05-12T03:54:19.134Z,98004.58
2019-05-12T03:55:55.363Z,98015.08
2019-05-12T03:57:34.281Z,98008.36
2019-05-12T03:59:08.856Z,98014.76
2019-05-12T04:00:45.678Z,98011.37
2019-05-12T04:02:21.393Z,98011.75
2019-05-12T04:03:57.122Z,98007.12
2019-05-12T04:05:34.917Z,98014.30
2019-05-12T04:07:10.011Z,98018.20
2019-05-12T04:08:48.183Z,98015.17
2019-05-12T04:10:24.891Z,98010.97
2019-05-12T04:12:01.539Z,98015.02
2019-05-12T04:13:39.241Z,98013.27
2019-05-12T04:15:17.161Z,98017.15
2019-05-12T04:16:55.085Z,98012.12
2019-05-12T04:18:30.267Z,98012.89
2019-05-12T04:20:06.881Z,98012.58
2019-05-12T04:21:44.609Z,98015.48
2019-05-12T04:23:20.710Z,98023.23
2019-05-12T04:24:55.914Z,98022.30
2019-05-12T04:26:31.160Z,98021.72
2019-05-12T04:28:06.828Z,98019.84
2019-05-12T04:29:44.144Z,98024.69
2019-05-12T04:31:19.462Z,98023.53
2019-05-12T04:32:55.773Z,98027.23
2019-05-12T04:34:34.121Z,98030.16
2019-05-12T04:36:08.157Z,98036.75
2019-05-12T04:37:44.960Z,98036.19
2019-05-12T04:39:20.942Z,98040.24
2019-05-12T04:40:56.303Z,98038.77
2019-05-12T04:42:34.666Z,98049.28
2019-05-12T04:44:09.155Z,98042.91
2019-05-12T04:45:45.330Z,98045.47
2019-05-12T04:47:20.721Z,98051.13
2019-05-12T04:48:56.243Z,98045.88
2019-05-12T04:50:35.286Z,98052.39
2019-05-12T04:52:15.538Z,98051.81
2019-05-12T04:53:54.827Z,98053.76
2019-05-12T04:55:30.513Z,98066.92
2019-05-12T04:57:06.066Z,98058.06
2019-05-12T04:58:44.704Z,98054.73
2019-05-12T05:00:18.610Z,98063.07
2019-05-12T05:01:54.257Z,98064.50
2019-05-12T05:03:34.967Z,98062.98
2019-05-12T05:05:10.506Z,98066.48
2019-05-12T05:06:46.852Z,98066.84
2019-05-12T05:08:24.797Z,98064.40
2019-05-12T05:10:04.476Z,98063.75
2019-05-12T05:11:38.342Z,98070.80
2019-05-12T05:13:15.265Z,98065.01
2019-05-12T05:15:00.553Z,98067.34
2019-05-12T05:16:36.554Z,98073.75
2019-05-12T05:18:13.490Z,98069.45
2019-05-12T05:19:49.522Z,98074.26
2019-05-12T05:21:26.799Z,98075.11
2019-05-12T05:23:03.463Z,98081.84
2019-05-12T05:24:41.362Z,98082.63
2019-05-12T05:26:28.149Z,98090.25
2019-05-12T05:28:09.451Z,98085.30
2019-05-12T05:29:45.772Z,98100.02
2019-05-12T05:31:21.027Z,98101.77
2019-05-12T05:32:56.589Z,98102.55
2019-05-12T05:34:34.345Z,98104.34
2019-05-12T05:36:15.070Z,98109.33
2019-05-12T05:37:47.905Z,98113.91
2019-05-12T05:39:24.386Z,98118.59
2019-05-12T05:41:05.864Z,98124.25
2019-05-12T05:42:38.878Z,98126.58
2019-05-12T05:44:16.386Z,98128.69
2019-05-12T05:45:54.546Z,98127.73
2019-05-12T05:47:33.461Z,98138.45
2019-05-12T05:49:09.666Z,98140.21
2019-05-12T05:50:45.154Z,98136.41
2019-05-12T05:52:26.566Z,98138.66
2019-05-12T05:53:58.759Z,98140.30
2019-05-12T05:55:36.731Z,98138.02
2019-05-12T05:57:14.242Z,98135.73
2019-05-12T05:58:51.766Z,98130.70
2019-05-12T06:00:28.357Z,98133.10
2019-05-12T06:02:05.097Z,98133.34
2019-05-12T06:03:40.819Z,98125.13
2019-05-12T06:05:19.889Z,98128.79
2019-05-12T06:06:56.755Z,98141.56
2019-05-12T06:08:37.464Z,98142.25
2019-05-12T06:10:14.452Z,98149.74
2019-05-12T06:11:50.045Z,98141.78
2019-05-12T06:13:31.873Z,98138.86
2019-05-12T06:15:09.124Z,98145.42
2019-05-12T06:16:45.072Z,98147.00
2019-05-12T06:18:21.026Z,98141.66
2019-05-12T06:19:56.730Z,98141.08
2019-05-12T06:21:36.360Z,98154.30
2019-05-12T06:23:11.374Z,98144.13
2019-05-12T06:24:49.055Z,98141.48
2019-05-12T06:26:30.896Z,98142.54
2019-05-12T06:28:04.154Z,98134.99
2019-05-12T06:29:43.706Z,98146.02
2019-05-12T06:31:25.199Z,98145.24
2019-05-12T06:32:57.939Z,98149.65
2019-05-12T06:34:34.278Z,98156.08
2019-05-12T06:36:13.991Z,98154.86
2019-05-12T06:37:57.329Z,98154.88
2019-05-12T06:39:26.107Z,98152.23
2019-05-12T06:41:03.486Z,98160.56
2019-05-12T06:42:40.505Z,98162.41
2019-05-12T06:44:19.446Z,98169.79
2019-05-12T06:45:56.359Z,98163.08
2019-05-12T06:47:34.137Z,98168.16
2019-05-12T06:49:12.795Z,98174.28
2019-05-12T06:50:45.934Z,98178.45
2019-05-12T06:52:23.658Z,98184.29
2019-05-12T06:54:00.827Z,98184.08
2019-05-12T06:55:39.131Z,98185.41
2019-05-12T06:57:23.409Z,98201.03
2019-05-12T06:58:50.151Z,98197.13
2019-05-12T07:00:32.647Z,98202.67
2019-05-12T07:02:08.595Z,98195.37
2019-05-12T07:03:45.851Z,98208.23
2019-05-12T07:05:23.252Z,98209.36
2019-05-12T07:07:00.652Z,98199.45
2019-05-12T07:08:43.661Z,98200.05
2019-05-12T07:10:36.643Z,98204.28
2019-05-12T07:12:06.186Z,98192.83
2019-05-12T07:13:44.930Z,98198.15
2019-05-12T07:15:29.429Z,98193.81
2019-05-12T07:17:10.739Z,98186.31
2019-05-12T07:18:47.471Z,98184.72
2019-05-12T07:20:29.294Z,98192.70
2019-05-12T07:22:18.855Z,98197.38
2019-05-12T07:23:40.849Z,98213.47
2019-05-12T07:25:16.846Z,98213.94
2019-05-12T07:26:54.697Z,98209.78
2019-05-12T07:28:30.414Z,98201.27
2019-05-12T07:30:09.911Z,98199.12
2019-05-12T07:31:45.533Z,98194.02
2019-05-12T07:33:23.214Z,98184.72
2019-05-12T07:34:58.758Z,98197.73
2019-05-12T07:36:34.817Z,98194.44
2019-05-12T07:38:12.124Z,98197.09
2019-05-12T07:39:49.469Z,98198.54
2019-05-12T07:41:25.583Z,98200.52
2019-05-12T07:43:04.043Z,98201.89
2019-05-12T07:44:41.383Z,98207.22
2019-05-12T07:46:28.002Z,98205.66
2019-05-12T07:48:10.067Z,98222.32
2019-05-12T07:49:40.776Z,98228.02
2019-05-12T07:51:16.952Z,98227.91
2019-05-12T07:52:54.702Z,98222.45
2019-05-12T07:54:37.352Z,98228.47
2019-05-12T07:56:07.672Z,98228.30
2019-05-12T07:57:55.120Z,98232.58
2019-05-12T07:59:35.699Z,98227.50
2019-05-12T08:01:08.005Z,98226.47
2019-05-12T08:02:44.590Z,98227.84
2019-05-12T08:04:20.525Z,98238.28
2019-05-12T08:06:01.557Z,98240.42
2019-05-12T08:07:35.659Z,98243.94
2019-05-12T08:09:13.448Z,98248.26
2019-05-12T08:10:57.171Z,98249.16
2019-05-12T08:12:34.650Z,98248.45
2019-05-12T08:14:24.880Z,98256.41
2019-05-12T08:15:56.467Z,98262.06
2019-05-12T08:17:33.719Z,98259.16
2019-05-12T08:19:17.159Z,98254.28
2019-05-12T08:20:48.072Z,98254.48
2019-05-12T08:22:29.357Z,98246.28
2019-05-12T08:24:03.810Z,98248.41
2019-05-12T08:25:39.974Z,98251.59
2019-05-12T08:27:17.854Z,98253.08
2019-05-12T08:29:00.110Z,98240.45
2019-05-12T08:30:47.476Z,98229.72
2019-05-12T08:32:18.547Z,98233.39
2019-05-12T08:33:59.235Z,98242.38
2019-05-12T08:35:38.013Z,98241.83
2019-05-12T08:37:13.827Z,98233.23
2019-05-12T08:38:49.883Z,98231.50
2019-05-12T08:40:33.942Z,98236.47
2019-05-12T08:42:08.999Z,98236.61
2019-05-12T08:43:54.489Z,98232.59
2019-05-12T08:45:33.727Z,98236.58
2019-05-12T08:47:03.890Z,98234.56
2019-05-12T08:48:40.395Z,98236.88
2019-05-12T08:50:15.690Z,98245.56
2019-05-12T08:51:57.785Z,98251.15
2019-05-12T08:53:33.509Z,98250.75
2019-05-12T08:55:08.515Z,98259.86
2019-05-12T08:56:43.912Z,98263.18
2019-05-12T08:58:30.450Z,98273.36
2019-05-12T09:00:03.229Z,98285.27
2019-05-12T09:01:38.586Z,98279.02
2019-05-12T09:03:20.404Z,98282.25
2019-05-12T09:04:55.886Z,98287.59
2019-05-12T09:06:34.462Z,98281.21
2019-05-12T09:08:10.328Z,98286.08
2019-05-12T09:09:56.141Z,98283.38
2019-05-12T09:11:35.473Z,98291.92
2019-05-12T09:13:20.166Z,98287.36
2019-05-12T09:14:56.134Z,98275.80
2019-05-12T09:16:33.590Z,98273.88
2019-05-12T09:18:15.303Z,98271.98
2019-05-12T09:19:54.994Z,98275.45
2019-05-12T09:21:31.799Z,98266.42
2019-05-12T09:23:05.947Z,98269.41
2019-05-12T09:24:41.141Z,98278.28
2019-05-12T09:26:18.546Z,98272.27
2019-05-12T09:27:54.330Z,98272.13
2019-05-12T09:29:38.295Z,98272.87
2019-05-12T09:31:14.195Z,98284.20
2019-05-12T09:32:55.947Z,98287.53
2019-05-12T09:34:33.546Z,98290.16
2019-05-12T09:36:11.320Z,98292.78
2019-05-12T09:37:50.022Z,98300.59
2019-05-12T09:39:36.455Z,98290.72
2019-05-12T09:41:26.787Z,98292.24
2019-05-12T09:43:08.738Z,98285.34
2019-05-12T09:44:46.082Z,98283.63
2019-05-12T09:46:28.489Z,98282.79
2019-05-12T09:48:09.071Z,98281.25
2019-05-12T09:49:45.941Z,98284.07
2019-05-12T09:51:23.812Z,98295.30
2019-05-12T09:53:00.829Z,98297.60
2019-05-12T09:54:41.035Z,98294.88
2019-05-12T09:56:23.934Z,98296.27
2019-05-12T09:58:04.474Z,98307.08
2019-05-12T09:59:45.890Z,98318.30
2019-05-12T10:01:19.802Z,98316.13
2019-05-12T10:03:08.258Z,98309.41
2019-05-12T10:04:43.802Z,98310.09
2019-05-12T10:06:26.630Z,98315.78
2019-05-12T10:08:05.782Z,98306.46
2019-05-12T10:09:49.184Z,98313.75
2019-05-12T10:11:23.941Z,98320.94
2019-05-12T10:13:05.842Z,98318.83
2019-05-12T10:14:48.237Z,98321.58
2019-05-12T10:16:26.970Z,98327.97
2019-05-12T10:18:11.470Z,98330.14
2019-05-12T10:19:53.160Z,98338.16
2019-05-12T10:21:29.362Z,98343.27
2019-05-12T10:23:16.503Z,98345.55
2019-05-12T10:24:58.862Z,98343.80
2019-05-12T10:26:41.300Z,98343.45
2019-05-12T10:28:24.384Z,98336.52
2019-05-12T10:30:11.849Z,98346.52
2019-05-12T10:31:44.499Z,98340.92
2019-05-12T10:33:23.252Z,98337.09
2019-05-12T10:35:05.049Z,98341.53
2019-05-12T10:36:44.866Z,98343.62
2019-05-12T10:38:19.739Z,98351.93
2019-05-12T10:39:56.687Z,98337.59
2019-05-12T10:41:34.227Z,98358.08
2019-05-12T10:43:12.411Z,98375.33
2019-05-12T10:44:54.498Z,98362.40
2019-05-12T10:46:30.607Z,98361.91
2019-05-12T10:48:07.460Z,98358.18
2019-05-12T10:49:44.169Z,98362.66
2019-05-12T10:51:19.815Z,98352.01
2019-05-12T10:52:56.679Z,98370.72
2019-05-12T10:54:34.264Z,98357.34
2019-05-12T10:56:24.007Z,98356.84
2019-05-12T10:58:06.332Z,98359.05
2019-05-12T10:59:48.158Z,98357.39
2019-05-12T11:01:38.288Z,98358.25
2019-05-12T11:03:15.485Z,98359.41
2019-05-12T11:04:54.644Z,98366.66
2019-05-12T11:06:39.558Z,98351.83
2019-05-12T11:08:11.967Z,98355.11
2019-05-12T11:10:15.519Z,98355.29
2019-05-12T11:11:53.809Z,98356.02
2019-05-12T11:13:28.896Z,98352.73
2019-05-12T11:15:09.803Z,98351.47
2019-05-12T11:16:47.359Z,98354.08
2019-05-12T11:18:28.646Z,98357.98
2019-05-12T11:20:04.117Z,98352.79
2019-05-12T11:21:44.346Z,98365.72
2019-05-12T11:23:20.668Z,98355.61
2019-05-12T11:24:59.004Z,98360.03
2019-05-12T11:26:35.608Z,98360.83
2019-05-12T11:28:14.054Z,98363.99
2019-05-12T11:29:49.751Z,98361.92
2019-05-12T11:31:28.092Z,98362.61
2019-05-12T11:33:04.489Z,98370.48
2019-05-12T11:34:41.388Z,98367.92
2019-05-12T11:36:17.719Z,98365.38
2019-05-12T11:37:56.556Z,98378.97
2019-05-12T11:39:42.085Z,98373.66
2019-05-12T11:41:20.347Z,98373.09
2019-05-12T11:43:00.875Z,98378.86
2019-05-12T11:44:38.844Z,98381.79
2019-05-12T11:46:14.791Z,98381.22
2019-05-12T11:47:50.631Z,98382.17
2019-05-12T11:49:28.371Z,98386.94
2019-05-12T11:51:05.290Z,98382.13
2019-05-12T11:52:45.977Z,98385.30
2019-05-12T11:54:24.298Z,98388.66
2019-05-12T11:56:07.637Z,98386.83
2019-05-12T11:57:49.267Z,98381.72
2019-05-12T11:59:34.133Z,98390.14
2019-05-12T12:01:13.328Z,98390.85
2019-05-12T12:02:51.646Z,98395.72
2019-05-12T12:04:46.067Z,98394.92
2019-05-12T12:06:29.528Z,98396.11
2019-05-12T12:08:05.829Z,98410.34
2019-05-12T12:09:43.840Z,98396.25
2019-05-12T12:11:28.298Z,98397.75
2019-05-12T12:13:19.154Z,98394.02
2019-05-12T12:14:53.679Z,98397.30
2019-05-12T12:16:30.822Z,98400.52
2019-05-12T12:18:17.362Z,98404.41
2019-05-12T12:19:55.870Z,98413.92
2019-05-12T12:21:34.824Z,98407.78
2019-05-12T12:23:11.464Z,98427.64
2019-05-12T12:24:55.979Z,98419.03
2019-05-12T12:26:40.493Z,98413.27
2019-05-12T12:28:26.133Z,98421.11
2019-05-12T12:30:19.305Z,98422.72
2019-05-12T12:31:59.834Z,98413.06
2019-05-12T12:33:40.662Z,98417.36
2019-05-12T12:35:34.572Z,98417.01
2019-05-12T12:37:09.534Z,98410.30
2019-05-12T12:38:53.500Z,98415.36
2019-05-12T12:40:31.186Z,98412.83
2019-05-12T12:42:10.427Z,98410.47
2019-05-12T12:43:47.499Z,98422.22
2019-05-12T12:45:36.622Z,98421.06
2019-05-12T12:47:17.873Z,98425.00
2019-05-12T12:49:00.332Z,98421.41
2019-05-12T12:51:03.932Z,98422.70
2019-05-12T12:52:48.957Z,98412.31
2019-05-12T12:54:39.309Z,98405.31
2019-05-12T12:56:29.821Z,98404.81
2019-05-12T12:58:07.598Z,98398.89
2019-05-12T12:59:51.035Z,98398.34
2019-05-12T13:01:32.580Z,98389.75
2019-05-12T13:03:09.411Z,98406.07
2019-05-12T13:04:50.178Z,98412.73
2019-05-12T13:06:23.924Z,98422.53
2019-05-12T13:08:10.752Z,98412.34
2019-05-12T13:09:44.783Z,98417.20
2019-05-12T13:11:33.727Z,98423.52
2019-05-12T13:13:09.102Z,98418.33
2019-05-12T13:14:44.967Z,98412.33
2019-05-12T13:16:24.019Z,98419.02
2019-05-12T13:17:59.611Z,98415.74
2019-05-12T13:19:36.197Z,98415.31
2019-05-12T13:21:13.702Z,98416.59
2019-05-12T13:22:53.699Z,98421.28
2019-05-12T13:24:38.548Z,98424.84
2019-05-12T13:26:18.412Z,98427.34
2019-05-12T13:27:53.537Z,98425.38
2019-05-12T13:29:38.076Z,98421.03
2019-05-12T13:31:15.343Z,98421.85
2019-05-12T13:32:46.872Z,98420.52
2019-05-12T13:34:23.735Z,98418.00
2019-05-12T13:36:01.409Z,98415.41
2019-05-12T13:37:43.311Z,98423.02
2019-05-12T13:39:20.928Z,98411.99
2019-05-12T13:41:15.984Z,98423.23
2019-05-12T13:42:39.908Z,98419.38
2019-05-12T13:44:15.179Z,98427.19
2019-05-12T13:45:54.517Z,98427.22
2019-05-12T13:47:35.300Z,98424.05
2019-05-12T13:49:08.648Z,98427.97
2019-05-12T13:50:48.140Z,98429.29
2019-05-12T13:52:30.149Z,98434.08
2019-05-12T13:54:04.985Z,98444.73
2019-05-12T13:55:45.492Z,98443.03
2019-05-12T13:57:20.774Z,98436.06
2019-05-12T13:59:00.798Z,98427.61
2019-05-12T14:00:41.486Z,98439.25
2019-05-12T14:02:22.178Z,98443.21
2019-05-12T14:03:54.896Z,98440.69
2019-05-12T14:05:34.123Z,98442.41
2019-05-12T14:07:15.759Z,98436.13
2019-05-12T14:08:47.142Z,98437.72
2019-05-12T14:10:28.760Z,98446.77
2019-05-12T14:12:04.606Z,98443.37
2019-05-12T14:13:42.790Z,98445.09
2019-05-12T14:15:18.667Z,98448.75
2019-05-12T14:16:59.253Z,98450.23
2019-05-12T14:18:38.595Z,98441.09
2019-05-12T14:20:24.124Z,98430.34
2019-05-12T14:22:03.450Z,98444.89
2019-05-12T14:23:43.994Z,98437.91
2019-05-12T14:25:34.910Z,98427.94
2019-05-12T14:27:09.043Z,98431.30
2019-05-12T14:28:47.082Z,98433.00
2019-05-12T14:30:24.393Z,98434.14
2019-05-12T14:32:02.384Z,98430.05
2019-05-12T14:33:39.306Z,98433.53
2019-05-12T14:35:13.682Z,98448.13
2019-05-12T14:36:50.960Z,98456.60
2019-05-12T14:38:29.921Z,98458.51
2019-05-12T14:40:06.703Z,98448.32
2019-05-12T14:41:52.587Z,98452.66
2019-05-12T14:43:21.926Z,98449.02
2019-05-12T14:44:59.070Z,98449.38
2019-05-12T14:46:40.085Z,98446.05
2019-05-12T14:48:19.164Z,98443.85
2019-05-12T14:49:58.136Z,98454.94
2019-05-12T14:51:37.336Z,98456.91
2019-05-12T14:53:18.829Z,98446.03
2019-05-12T14:54:54.584Z,98443.78
2019-05-12T14:56:30.438Z,98441.70
2019-05-12T14:58:09.391Z,98433.92
2019-05-12T14:59:45.279Z,98440.12
2019-05-12T15:01:23.840Z,98437.22
2019-05-12T15:03:05.063Z,98439.13
2019-05-12T15:04:39.920Z,98442.16
2019-05-12T15:06:19.402Z,98441.55
2019-05-12T15:07:59.855Z,98436.75
2019-05-12T15:09:35.272Z,98442.83
2019-05-12T15:11:14.655Z,98437.34
2019-05-12T15:12:50.163Z,98436.48
2019-05-12T15:14:32.863Z,98439.43
2019-05-12T15:16:04.932Z,98443.97
2019-05-12T15:17:41.122Z,98440.26
2019-05-12T15:19:27.833Z,98445.59
2019-05-12T15:21:14.390Z,98446.10
2019-05-12T15:22:51.597Z,98452.95
2019-05-12T15:24:28.111Z,98457.38
2019-05-12T15:26:04.373Z,98462.58
2019-05-12T15:27:45.234Z,98454.36
2019-05-12T15:29:20.108Z,98448.73
2019-05-12T15:30:56.247Z,98459.11
2019-05-12T15:32:36.217Z,98464.25
2019-05-12T15:34:14.149Z,98472.11
2019-05-12T15:35:49.858Z,98462.09
2019-05-12T15:37:28.873Z,98472.77
2019-05-12T15:39:06.874Z,98470.05
2019-05-12T15:40:45.757Z,98466.13
2019-05-12T15:42:23.556Z,98467.78
2019-05-12T15:44:03.397Z,98469.47
2019-05-12T15:45:38.718Z,98474.20
2019-05-12T15:47:17.268Z,98470.73
2019-05-12T15:48:53.529Z,98472.38
2019-05-12T15:50:30.929Z,98466.63
2019-05-12T15:52:08.958Z,98467.28
2019-05-12T15:53:44.830Z,98472.30
2019-05-12T15:55:32.986Z,98472.94
2019-05-12T15:57:13.525Z,98468.27
2019-05-12T15:59:02.561Z,98475.73
2019-05-12T16:00:43.797Z,98478.03
2019-05-12T16:02:19.969Z,98477.66
2019-05-12T16:03:55.701Z,98476.36
2019-05-12T16:05:33.710Z,98482.21
2019-05-12T16:07:09.006Z,98469.44
2019-05-12T16:08:45.057Z,98469.96
2019-05-12T16:10:20.572Z,98469.24
2019-05-12T16:12:00.001Z,98466.52
2019-05-12T16:13:36.916Z,98467.44
2019-05-12T16:15:19.190Z,98458.68
2019-05-12T16:17:00.136Z,98469.19
2019-05-12T16:18:40.404Z,98473.02
2019-05-12T16:20:17.832Z,98477.88
2019-05-12T16:21:54.077Z,98472.42
2019-05-12T16:23:34.094Z,98487.45
2019-05-12T16:25:14.841Z,98485.33
2019-05-12T16:27:07.129Z,98480.39
2019-05-12T16:28:44.286Z,98475.41
2019-05-12T16:30:25.383Z,98471.16
2019-05-12T16:32:00.017Z,98476.77
2019-05-12T16:33:43.497Z,98477.30
2019-05-12T16:35:20.247Z,98490.30
2019-05-12T16:37:14.092Z,98487.89
2019-05-12T16:39:01.135Z,98472.98
2019-05-12T16:40:48.537Z,98479.42
2019-05-12T16:42:26.069Z,98479.33
2019-05-12T16:44:09.572Z,98489.59
2019-05-12T16:46:09.452Z,98491.63
2019-05-12T16:47:46.243Z,98487.81
2019-05-12T16:49:24.975Z,98490.37
2019-05-12T16:51:03.780Z,98496.52
2019-05-12T16:52:53.589Z,98491.72
2019-05-12T16:54:33.559Z,98499.00
2019-05-12T16:56:20.108Z,98492.25
2019-05-12T16:58:03.856Z,98503.26
2019-05-12T16:59:39.196Z,98506.23
2019-05-12T17:01:19.583Z,98505.03
2019-05-12T17:02:58.066Z,98505.41
2019-05-12T17:04:41.484Z,98510.61
2019-05-12T17:06:23.315Z,98506.30
2019-05-12T17:08:04.017Z,98508.33
2019-05-12T17:09:43.803Z,98512.95
2019-05-12T17:11:26.378Z,98515.15
2019-05-12T17:12:59.045Z,98521.24
2019-05-12T17:14:48.001Z,98513.16
2019-05-12T17:16:16.591Z,98520.61
2019-05-12T17:18:01.181Z,98516.80
2019-05-12T17:20:15.490Z,98519.20
2019-05-12T17:21:33.412Z,98511.35
2019-05-12T17:23:13.867Z,98511.00
2019-05-12T17:25:00.315Z,98512.11
2019-05-12T17:26:45.431Z,98511.59
2019-05-12T17:28:25.664Z,98504.52
2019-05-12T17:30:05.702Z,98512.19
2019-05-12T17:31:44.577Z,98513.81
2019-05-12T17:33:27.528Z,98519.49
2019-05-12T17:35:04.197Z,98514.45
2019-05-12T17:36:38.976Z,98527.14
2019-05-12T17:38:19.949Z,98523.06
2019-05-12T17:39:52.205Z,98528.39
2019-05-12T17:41:31.496Z,98526.52
2019-05-12T17:43:11.955Z,98531.41
2019-05-12T17:44:48.801Z,98536.03
2019-05-12T17:46:24.206Z,98534.72
2019-05-12T17:48:07.431Z,98539.41
2019-05-12T17:49:43.645Z,98538.92
2019-05-12T17:51:26.692Z,98539.25
2019-05-12T17:53:13.603Z,98544.45
2019-05-12T17:55:04.553Z,98546.04
2019-05-12T17:56:40.383Z,98548.38
2019-05-12T17:58:24.243Z,98547.87
2019-05-12T18:00:13.919Z,98558.33
2019-05-12T18:02:14.994Z,98555.22
2019-05-12T18:03:53.450Z,98548.95
2019-05-12T18:05:33.905Z,98553.50
2019-05-12T18:07:19.107Z,98555.48
2019-05-12T18:08:55.491Z,98558.05
2019-05-12T18:10:32.579Z,98555.09
2019-05-12T18:12:26.820Z,98552.48
2019-05-12T18:14:24.650Z,98562.53
2019-05-12T18:15:59.070Z,98567.30
2019-05-12T18:17:45.147Z,98561.56
2019-05-12T18:19:19.710Z,98554.16
2019-05-12T18:20:58.868Z,98563.24
2019-05-12T18:22:45.052Z,98559.40
2019-05-12T18:24:19.810Z,98568.91
2019-05-12T18:26:03.189Z,98566.73
2019-05-12T18:27:44.660Z,98573.20
2019-05-12T18:29:18.445Z,98567.05
2019-05-12T18:30:56.363Z,98563.59
2019-05-12T18:32:31.568Z,98566.33
2019-05-12T18:34:13.907Z,98570.25
2019-05-12T18:35:55.536Z,98568.37
2019-05-12T18:37:34.406Z,98571.11
2019-05-12T18:39:14.290Z,98570.05
2019-05-12T18:40:54.123Z,98572.59
2019-05-12T18:42:35.302Z,98576.95
2019-05-12T18:44:26.268Z,98576.36
2019-05-12T18:46:04.820Z,98571.31
2019-05-12T18:47:36.441Z,98574.68
2019-05-12T18:49:16.070Z,98577.24
2019-05-12T18:51:05.035Z,98580.22
2019-05-12T18:52:42.815Z,98579.50
2019-05-12T18:54:20.908Z,98579.55
2019-05-12T18:56:04.380Z,98582.30
2019-05-12T18:57:47.923Z,98585.47
2019-05-12T18:59:22.715Z,98583.90
2019-05-12T19:01:00.440Z,98582.02
2019-05-12T19:02:36.566Z,98587.09
2019-05-12T19:04:14.196Z,98592.38
2019-05-12T19:05:49.618Z,98592.21
2019-05-12T19:07:39.399Z,98587.55
2019-05-12T19:09:07.217Z,98590.86
2019-05-12T19:10:51.588Z,98600.61
2019-05-12T19:12:32.364Z,98603.12
2019-05-12T19:14:05.904Z,98607.00
2019-05-12T19:15:46.106Z,98607.58
2019-05-12T19:17:25.096Z,98611.84
2019-05-12T19:19:09.697Z,98611.05
2019-05-12T19:20:43.283Z,98612.00